Time,TemperatureF,DewpointF,PressureIn,WindDirection,WindDirectionDegrees,WindSpeedMPH,WindSpeedGustMPH,Humidity,HourlyPrecipIn,Conditions,Clouds,dailyrainin,SoftwareType,DateUTC
2013-04-02 00:02:00,40.3,26.7,30.29,ENE,72,9.0,12.0,58,0.00,,,0.00,Wunderground v.1.15,2013-04-02 05:02:00,
2013-04-02 00:12:00,40.3,26.7,30.28,ENE,62,10.0,13.0,58,0.00,,,0.00,Wunderground v.1.15,2013-04-02 05:12:00,
2013-04-02 00:22:00,40.2,26.2,30.28,East,84,11.0,11.0,57,0.00,,,0.00,Wunderground v.1.15,2013-04-02 05:22:00,
2013-04-02 00:32:00,40.1,26.9,30.29,East,85,10.0,10.0,59,0.00,,,0.00,Wunderground v.1.15,2013-04-02 05:32:00,
2013-04-02 00:42:00,39.9,27.1,30.31,East,82,8.0,8.0,60,0.00,,,0.00,Wunderground v.1.15,2013-04-02 05:42:00,
2013-04-02 00:52:00,39.3,28.1,30.31,East,92,7.0,16.0,64,0.00,,,0.00,Wunderground v.1.15,2013-04-02 05:52:00,
2013-04-02 01:02:00,39.2,28.4,30.28,ENE,62,9.0,11.0,65,0.00,,,0.00,Wunderground v.1.15,2013-04-02 06:02:00,
2013-04-02 01:12:00,39.0,28.2,30.29,East,82,11.0,11.0,65,0.00,,,0.00,Wunderground v.1.15,2013-04-02 06:12:00,
2013-04-02 01:22:00,39.1,27.2,30.30,ENE,62,9.0,9.0,62,0.00,,,0.00,Wunderground v.1.15,2013-04-02 06:22:00,
2013-04-02 01:32:00,38.9,28.1,30.30,NNE,23,11.0,14.0,65,0.00,,,0.01,Wunderground v.1.15,2013-04-02 06:32:00,
2013-04-02 01:42:00,38.3,28.7,30.30,ENE,62,9.0,9.0,68,0.00,,,0.01,Wunderground v.1.15,2013-04-02 06:42:00,
2013-04-02 01:52:00,38.3,29.0,30.31,ENE,65,8.0,8.0,69,0.00,,,0.01,Wunderground v.1.15,2013-04-02 06:52:00,
2013-04-02 02:02:00,38.5,28.5,30.31,East,80,8.0,8.0,67,0.00,,,0.01,Wunderground v.1.15,2013-04-02 07:02:00,
2013-04-02 02:12:00,38.2,29.6,30.32,ENE,76,6.0,6.0,71,0.00,,,0.02,Wunderground v.1.15,2013-04-02 07:12:00,
2013-04-02 02:22:00,37.5,30.6,30.32,ENE,57,6.0,6.0,76,0.09,,,0.03,Wunderground v.1.15,2013-04-02 07:22:00,
2013-04-02 02:32:00,37.2,31.3,30.33,NNE,13,3.0,3.0,79,0.05,,,0.04,Wunderground v.1.15,2013-04-02 07:32:00,
2013-04-02 02:42:00,37.2,31.0,30.34,NE,44,4.0,6.0,78,0.04,,,0.04,Wunderground v.1.15,2013-04-02 07:42:00,
2013-04-02 02:51:00,37.2,29.7,30.34,ENE,62,6.0,6.0,74,0.00,,,0.04,Wunderground v.1.15,2013-04-02 07:51:00,
2013-04-02 03:02:00,37.0,30.1,30.33,ENE,57,6.0,8.0,76,0.00,,,0.04,Wunderground v.1.15,2013-04-02 08:02:00,
2013-04-02 03:12:00,36.7,28.5,30.33,NE,43,9.0,12.0,72,0.00,,,0.04,Wunderground v.1.15,2013-04-02 08:12:00,
2013-04-02 03:22:00,36.4,28.6,30.33,ENE,63,10.0,10.0,73,0.00,,,0.04,Wunderground v.1.15,2013-04-02 08:22:00,
2013-04-02 03:32:00,36.2,28.7,30.34,NE,55,9.0,9.0,74,0.00,,,0.04,Wunderground v.1.15,2013-04-02 08:32:00,
2013-04-02 03:42:00,36.1,29.3,30.33,NE,46,6.0,7.0,76,0.00,,,0.04,Wunderground v.1.15,2013-04-02 08:42:00,
2013-04-02 03:52:00,36.1,28.3,30.33,NE,51,8.0,8.0,73,0.00,,,0.04,Wunderground v.1.15,2013-04-02 08:52:00,
2013-04-02 04:02:00,36.0,28.8,30.33,ENE,69,8.0,9.0,75,0.00,,,0.04,Wunderground v.1.15,2013-04-02 09:02:00,
2013-04-02 04:12:00,35.9,28.7,30.32,NE,53,8.0,10.0,75,0.00,,,0.04,Wunderground v.1.15,2013-04-02 09:12:00,
2013-04-02 04:22:00,35.9,28.7,30.32,ENE,61,8.0,8.0,75,0.00,,,0.04,Wunderground v.1.15,2013-04-02 09:22:00,
2013-04-02 04:32:00,35.8,28.0,30.32,East,80,8.0,8.0,73,0.00,,,0.04,Wunderground v.1.15,2013-04-02 09:32:00,
2013-04-02 04:42:00,35.7,28.2,30.32,NE,53,7.0,7.0,74,0.00,,,0.04,Wunderground v.1.15,2013-04-02 09:42:00,
2013-04-02 04:52:00,35.7,28.2,30.32,East,95,7.0,16.0,74,0.00,,,0.04,Wunderground v.1.15,2013-04-02 09:52:00,
2013-04-02 05:02:00,35.6,27.5,30.32,East,94,8.0,11.0,72,0.00,,,0.04,Wunderground v.1.15,2013-04-02 10:02:00,
2013-04-02 05:12:00,35.4,27.3,30.32,ENE,74,9.0,13.0,72,0.00,,,0.04,Wunderground v.1.15,2013-04-02 10:12:00,
2013-04-02 05:22:00,35.1,27.0,30.32,ENE,70,11.0,11.0,72,0.00,,,0.04,Wunderground v.1.15,2013-04-02 10:22:00,
2013-04-02 05:32:00,34.8,28.0,30.33,ENE,62,10.0,10.0,76,0.00,,,0.04,Wunderground v.1.15,2013-04-02 10:32:00,
2013-04-02 05:42:00,34.5,28.0,30.33,ENE,76,9.0,10.0,77,0.00,,,0.04,Wunderground v.1.15,2013-04-02 10:42:00,
2013-04-02 05:52:00,34.4,27.9,30.33,ENE,70,8.0,13.0,77,0.00,,,0.04,Wunderground v.1.15,2013-04-02 10:52:00,
2013-04-02 06:02:00,34.4,28.2,30.34,East,90,7.0,7.0,78,0.00,,,0.04,Wunderground v.1.15,2013-04-02 11:02:00,
2013-04-02 06:12:00,34.3,28.5,30.34,ENE,70,7.0,9.0,79,0.00,,,0.04,Wunderground v.1.15,2013-04-02 11:12:00,
2013-04-02 06:22:00,34.2,28.7,30.33,East,89,8.0,10.0,80,0.00,,,0.04,Wunderground v.1.15,2013-04-02 11:22:00,
2013-04-02 06:32:00,34.0,28.5,30.32,ENE,78,8.0,10.0,80,0.00,,,0.04,Wunderground v.1.15,2013-04-02 11:32:00,
2013-04-02 06:42:00,33.9,28.4,30.32,ESE,103,9.0,11.0,80,0.00,,,0.04,Wunderground v.1.15,2013-04-02 11:42:00,
2013-04-02 06:52:00,34.0,28.8,30.33,ESE,117,6.0,6.0,81,0.00,,,0.04,Wunderground v.1.15,2013-04-02 11:52:00,
2013-04-02 07:02:00,34.1,28.9,30.33,East,101,7.0,7.0,81,0.00,,,0.04,Wunderground v.1.15,2013-04-02 12:02:00,
2013-04-02 07:12:00,34.1,28.6,30.33,East,96,6.0,6.0,80,0.00,,,0.04,Wunderground v.1.15,2013-04-02 12:12:00,
2013-04-02 07:22:00,34.1,28.6,30.34,East,89,6.0,7.0,80,0.00,,,0.04,Wunderground v.1.15,2013-04-02 12:22:00,
2013-04-02 07:32:00,34.1,28.6,30.34,ENE,76,7.0,7.0,80,0.00,,,0.04,Wunderground v.1.15,2013-04-02 12:32:00,
2013-04-02 07:42:00,34.3,28.8,30.34,ENE,72,6.0,13.0,80,0.00,,,0.04,Wunderground v.1.15,2013-04-02 12:42:00,
2013-04-02 07:52:00,34.1,28.3,30.34,ENE,75,9.0,9.0,79,0.00,,,0.04,Wunderground v.1.15,2013-04-02 12:52:00,
2013-04-02 08:02:00,34.1,28.3,30.34,ENE,73,7.0,7.0,79,0.00,,,0.04,Wunderground v.1.15,2013-04-02 13:02:00,
2013-04-02 08:12:00,34.1,28.6,30.33,ENE,73,9.0,9.0,80,0.00,,,0.04,Wunderground v.1.15,2013-04-02 13:12:00,
2013-04-02 08:22:00,34.0,28.2,30.34,East,84,9.0,9.0,79,0.00,,,0.04,Wunderground v.1.15,2013-04-02 13:22:00,
2013-04-02 08:32:00,34.1,28.3,30.34,ENE,61,8.0,9.0,79,0.00,,,0.04,Wunderground v.1.15,2013-04-02 13:32:00,
2013-04-02 08:42:00,34.0,28.5,30.34,ENE,78,9.0,9.0,80,0.00,,,0.04,Wunderground v.1.15,2013-04-02 13:42:00,
2013-04-02 08:52:00,33.9,28.7,30.34,East,82,7.0,7.0,81,0.00,,,0.04,Wunderground v.1.15,2013-04-02 13:52:00,
2013-04-02 09:02:00,33.5,28.6,30.33,ENE,57,7.0,10.0,82,0.00,,,0.05,Wunderground v.1.15,2013-04-02 14:02:00,
2013-04-02 09:12:00,33.4,28.5,30.34,ENE,63,8.0,8.0,82,0.00,,,0.05,Wunderground v.1.15,2013-04-02 14:12:00,
2013-04-02 09:22:00,33.2,28.9,30.34,ENE,58,7.0,7.0,84,0.00,,,0.05,Wunderground v.1.15,2013-04-02 14:22:00,
2013-04-02 09:32:00,33.1,28.8,30.34,ENE,65,7.0,9.0,84,0.00,,,0.05,Wunderground v.1.15,2013-04-02 14:32:00,
2013-04-02 09:42:00,33.0,28.7,30.35,ENE,71,7.0,7.0,84,0.00,,,0.05,Wunderground v.1.15,2013-04-02 14:42:00,
2013-04-02 09:52:00,33.0,28.4,30.35,ENE,77,5.0,5.0,83,0.00,,,0.05,Wunderground v.1.15,2013-04-02 14:52:00,
2013-04-02 10:02:00,32.9,28.6,30.34,East,84,5.0,5.0,84,0.00,,,0.05,Wunderground v.1.15,2013-04-02 15:02:00,
2013-04-02 10:12:00,33.1,29.1,30.35,ENE,70,5.0,7.0,85,0.00,,,0.05,Wunderground v.1.15,2013-04-02 15:12:00,
2013-04-02 10:22:00,33.2,29.5,30.35,NE,53,5.0,5.0,86,0.00,,,0.05,Wunderground v.1.15,2013-04-02 15:22:00,
2013-04-02 10:32:00,33.3,29.3,30.34,ENE,71,5.0,7.0,85,0.00,,,0.06,Wunderground v.1.15,2013-04-02 15:32:00,
2013-04-02 10:42:00,33.5,29.5,30.35,East,87,5.0,5.0,85,0.00,,,0.06,Wunderground v.1.15,2013-04-02 15:42:00,
2013-04-02 10:52:00,33.9,29.6,30.35,East,80,6.0,7.0,84,0.00,,,0.07,Wunderground v.1.15,2013-04-02 15:52:00,
2013-04-02 11:02:00,34.3,29.7,30.36,ENE,57,6.0,8.0,83,0.00,,,0.07,Wunderground v.1.15,2013-04-02 16:02:00,
2013-04-02 11:12:00,34.3,29.4,30.37,East,89,5.0,8.0,82,0.00,,,0.07,Wunderground v.1.15,2013-04-02 16:12:00,
2013-04-02 11:22:00,34.2,29.0,30.36,East,98,8.0,10.0,81,0.00,,,0.07,Wunderground v.1.15,2013-04-02 16:22:00,
2013-04-02 11:32:00,34.3,29.1,30.36,East,80,7.0,9.0,81,0.00,,,0.07,Wunderground v.1.15,2013-04-02 16:32:00,
2013-04-02 11:42:00,34.6,29.4,30.36,NE,53,6.0,7.0,81,0.00,,,0.08,Wunderground v.1.15,2013-04-02 16:42:00,
2013-04-02 11:52:00,34.9,29.7,30.36,East,84,7.0,9.0,81,0.00,,,0.08,Wunderground v.1.15,2013-04-02 16:52:00,
2013-04-02 12:02:00,35.2,29.6,30.36,ENE,65,5.0,5.0,80,0.00,,,0.08,Wunderground v.1.15,2013-04-02 17:02:00,
2013-04-02 12:12:00,35.5,29.6,30.37,ENE,72,5.0,5.0,79,0.00,,,0.08,Wunderground v.1.15,2013-04-02 17:12:00,
2013-04-02 12:22:00,35.7,29.2,30.37,ENE,66,5.0,9.0,77,0.00,,,0.08,Wunderground v.1.15,2013-04-02 17:22:00,
2013-04-02 12:32:00,36.1,28.9,30.37,ENE,60,7.0,7.0,75,0.00,,,0.08,Wunderground v.1.15,2013-04-02 17:32:00,
2013-04-02 12:42:00,36.5,29.0,30.37,ENE,68,5.0,5.0,74,0.00,,,0.09,Wunderground v.1.15,2013-04-02 17:42:00,
2013-04-02 12:52:00,36.5,28.7,30.37,NE,51,6.0,6.0,73,0.00,,,0.09,Wunderground v.1.15,2013-04-02 17:52:00,
2013-04-02 13:02:00,36.7,27.8,30.36,ENE,72,8.0,10.0,70,0.00,,,0.09,Wunderground v.1.15,2013-04-02 18:02:00,
2013-04-02 13:12:00,37.0,27.8,30.36,East,84,10.0,10.0,69,0.00,,,0.09,Wunderground v.1.15,2013-04-02 18:12:00,
2013-04-02 13:22:00,37.3,29.1,30.36,East,80,6.0,6.0,72,0.00,,,0.09,Wunderground v.1.15,2013-04-02 18:22:00,
2013-04-02 13:32:00,37.4,28.2,30.35,East,101,9.0,9.0,69,0.00,,,0.09,Wunderground v.1.15,2013-04-02 18:32:00,
2013-04-02 13:42:00,37.5,28.2,30.35,ENE,61,9.0,10.0,69,0.00,,,0.10,Wunderground v.1.15,2013-04-02 18:42:00,
2013-04-02 13:52:00,37.7,28.4,30.35,ENE,77,8.0,8.0,69,0.00,,,0.10,Wunderground v.1.15,2013-04-02 18:52:00,
2013-04-02 14:02:00,38.1,28.8,30.34,ENE,68,7.0,7.0,69,0.00,,,0.10,Wunderground v.1.15,2013-04-02 19:02:00,
2013-04-02 14:12:00,38.4,28.8,30.34,ENE,58,7.0,9.0,68,0.00,,,0.10,Wunderground v.1.15,2013-04-02 19:12:00,
2013-04-02 14:22:00,38.5,28.1,30.34,East,91,6.0,6.0,66,0.00,,,0.11,Wunderground v.1.15,2013-04-02 19:22:00,
2013-04-02 14:32:00,38.7,28.3,30.34,East,85,7.0,7.0,66,0.00,,,0.11,Wunderground v.1.15,2013-04-02 19:32:00,
2013-04-02 14:42:00,38.7,27.6,30.34,East,80,6.0,6.0,64,0.00,,,0.11,Wunderground v.1.15,2013-04-02 19:42:00,
2013-04-02 14:52:00,38.9,27.8,30.33,ENE,62,6.0,10.0,64,0.00,,,0.11,Wunderground v.1.15,2013-04-02 19:52:00,
2013-04-02 15:02:00,39.2,28.4,30.32,ENE,58,6.0,6.0,65,0.00,,,0.11,Wunderground v.1.15,2013-04-02 20:02:00,
2013-04-02 15:12:00,39.7,28.1,30.32,East,79,5.0,5.0,63,0.00,,,0.12,Wunderground v.1.15,2013-04-02 20:12:00,
2013-04-02 15:22:00,39.7,27.7,30.32,ENE,65,7.0,13.0,62,0.00,,,0.12,Wunderground v.1.15,2013-04-02 20:22:00,
2013-04-02 15:32:00,39.7,27.7,30.31,ENE,62,10.0,10.0,62,0.00,,,0.12,Wunderground v.1.15,2013-04-02 20:32:00,
2013-04-02 15:42:00,39.9,27.5,30.31,ENE,74,11.0,11.0,61,0.00,,,0.12,Wunderground v.1.15,2013-04-02 20:42:00,
2013-04-02 15:52:00,40.1,27.7,30.31,ENE,73,9.0,9.0,61,0.00,,,0.12,Wunderground v.1.15,2013-04-02 20:52:00,
2013-04-02 16:02:00,40.3,27.5,30.31,ENE,72,9.0,10.0,60,0.00,,,0.13,Wunderground v.1.15,2013-04-02 21:02:00,
2013-04-02 16:12:00,40.4,27.2,30.30,ENE,65,10.0,10.0,59,0.00,,,0.13,Wunderground v.1.15,2013-04-02 21:12:00,
2013-04-02 16:22:00,40.6,26.1,30.30,ENE,62,11.0,15.0,56,0.00,,,0.13,Wunderground v.1.15,2013-04-02 21:22:00,
2013-04-02 16:32:00,40.9,27.2,30.30,East,91,11.0,11.0,58,0.00,,,0.13,Wunderground v.1.15,2013-04-02 21:32:00,
2013-04-02 16:52:00,41.0,26.1,30.30,ENE,72,10.0,10.0,55,0.00,,,0.13,Wunderground v.1.15,2013-04-02 21:52:00,
2013-04-02 17:02:00,41.0,25.6,30.29,ENE,68,11.0,14.0,54,0.00,,,0.13,Wunderground v.1.15,2013-04-02 22:02:00,
2013-04-02 17:12:00,41.2,25.8,30.30,East,82,10.0,17.0,54,0.00,,,0.13,Wunderground v.1.15,2013-04-02 22:12:00,
2013-04-02 17:22:00,41.2,25.3,30.30,East,86,11.0,11.0,53,0.00,,,0.13,Wunderground v.1.15,2013-04-02 22:22:00,
2013-04-02 17:32:00,41.3,25.9,30.30,ENE,70,9.0,9.0,54,0.00,,,0.13,Wunderground v.1.15,2013-04-02 22:32:00,
2013-04-02 17:42:00,41.2,25.3,30.30,NE,40,8.0,8.0,53,0.00,,,0.13,Wunderground v.1.15,2013-04-02 22:42:00,
2013-04-02 17:52:00,41.3,25.9,30.30,ENE,61,9.0,9.0,54,0.00,,,0.13,Wunderground v.1.15,2013-04-02 22:52:00,
2013-04-02 18:02:00,40.9,29.3,30.30,ENE,73,6.0,6.0,63,0.00,,,0.13,Wunderground v.1.15,2013-04-02 23:02:00,
2013-04-02 18:12:00,40.8,29.6,30.29,East,82,6.0,6.0,64,0.00,,,0.13,Wunderground v.1.15,2013-04-02 23:12:00,
2013-04-02 18:22:00,41.1,28.7,30.29,ENE,75,7.0,7.0,61,0.00,,,0.13,Wunderground v.1.15,2013-04-02 23:22:00,
2013-04-02 18:32:00,41.3,28.9,30.29,East,101,7.0,10.0,61,0.00,,,0.13,Wunderground v.1.15,2013-04-02 23:32:00,
2013-04-02 18:42:00,41.1,29.5,30.29,East,94,7.0,7.0,63,0.00,,,0.13,Wunderground v.1.15,2013-04-02 23:42:00,
2013-04-02 18:52:00,40.9,29.3,30.29,East,97,8.0,16.0,63,0.00,,,0.13,Wunderground v.1.15,2013-04-02 23:52:00,
2013-04-02 19:02:00,40.8,29.2,30.29,East,97,7.0,7.0,63,0.00,,,0.13,Wunderground v.1.15,2013-04-03 00:02:00,
2013-04-02 19:12:00,40.7,28.7,30.30,East,85,5.0,5.0,62,0.00,,,0.13,Wunderground v.1.15,2013-04-03 00:12:00,
2013-04-02 19:22:00,40.6,30.1,30.30,ESE,107,4.0,4.0,66,0.00,,,0.13,Wunderground v.1.15,2013-04-03 00:22:00,
2013-04-02 19:32:00,40.4,30.3,30.30,East,94,4.0,4.0,67,0.00,,,0.13,Wunderground v.1.15,2013-04-03 00:32:00,
2013-04-02 19:42:00,40.2,29.7,30.30,East,96,4.0,7.0,66,0.00,,,0.13,Wunderground v.1.15,2013-04-03 00:42:00,
2013-04-02 19:52:00,40.1,30.0,30.30,East,101,4.0,4.0,67,0.00,,,0.13,Wunderground v.1.15,2013-04-03 00:52:00,
2013-04-02 20:02:00,40.0,31.0,30.30,East,97,3.0,3.0,70,0.00,,,0.13,Wunderground v.1.15,2013-04-03 01:02:00,
2013-04-02 20:12:00,39.9,30.5,30.30,ESE,112,2.0,2.0,69,0.00,,,0.13,Wunderground v.1.15,2013-04-03 01:12:00,
2013-04-02 20:22:00,39.7,30.4,30.30,East,85,3.0,3.0,69,0.00,,,0.13,Wunderground v.1.15,2013-04-03 01:22:00,
2013-04-02 20:32:00,39.8,30.5,30.30,SE,129,3.0,3.0,69,0.00,,,0.13,Wunderground v.1.15,2013-04-03 01:32:00,
2013-04-02 20:41:00,39.5,32.2,30.29,ESE,103,1.0,1.0,75,0.00,,,0.13,Wunderground v.1.15,2013-04-03 01:41:00,
2013-04-02 20:51:00,39.4,31.5,30.30,ESE,113,1.0,2.0,73,0.00,,,0.13,Wunderground v.1.15,2013-04-03 01:51:00,
2013-04-02 21:02:00,39.4,30.8,30.30,East,83,2.0,2.0,71,0.00,,,0.13,Wunderground v.1.15,2013-04-03 02:02:00,
2013-04-02 21:12:00,39.5,29.8,30.30,East,92,3.0,5.0,68,0.00,,,0.13,Wunderground v.1.15,2013-04-03 02:12:00,
2013-04-02 21:22:00,39.5,29.8,30.30,ENE,68,4.0,4.0,68,0.00,,,0.13,Wunderground v.1.15,2013-04-03 02:22:00,
2013-04-02 21:32:00,39.5,29.8,30.30,East,92,4.0,5.0,68,0.00,,,0.13,Wunderground v.1.15,2013-04-03 02:32:00,
2013-04-02 21:42:00,39.4,30.1,30.31,East,90,4.0,4.0,69,0.00,,,0.13,Wunderground v.1.15,2013-04-03 02:42:00,
2013-04-02 21:52:00,39.3,30.0,30.30,ENE,73,4.0,5.0,69,0.00,,,0.13,Wunderground v.1.15,2013-04-03 02:52:00,
2013-04-02 22:02:00,39.2,29.2,30.31,ESE,103,5.0,5.0,67,0.00,,,0.13,Wunderground v.1.15,2013-04-03 03:02:00,
2013-04-02 22:12:00,39.2,29.2,30.31,ENE,67,4.0,4.0,67,0.00,,,0.13,Wunderground v.1.15,2013-04-03 03:12:00,
2013-04-02 22:22:00,39.1,29.4,30.31,East,82,4.0,4.0,68,0.00,,,0.13,Wunderground v.1.15,2013-04-03 03:22:00,
2013-04-02 22:32:00,39.0,29.3,30.31,East,84,3.0,4.0,68,0.00,,,0.13,Wunderground v.1.15,2013-04-03 03:32:00,
2013-04-02 22:42:00,38.9,29.6,30.32,ESE,117,3.0,3.0,69,0.00,,,0.13,Wunderground v.1.15,2013-04-03 03:42:00,
2013-04-02 22:52:00,38.8,29.1,30.32,East,80,3.0,4.0,68,0.00,,,0.13,Wunderground v.1.15,2013-04-03 03:52:00,
2013-04-02 23:02:00,38.8,29.1,30.34,ESE,115,4.0,4.0,68,0.00,,,0.13,Wunderground v.1.15,2013-04-03 04:02:00,
2013-04-02 23:12:00,38.7,29.4,30.34,East,84,4.0,4.0,69,0.00,,,0.13,Wunderground v.1.15,2013-04-03 04:12:00,
2013-04-02 23:22:00,38.7,29.4,30.34,East,83,3.0,4.0,69,0.00,,,0.13,Wunderground v.1.15,2013-04-03 04:22:00,
2013-04-02 23:32:00,38.8,29.1,30.34,ENE,70,3.0,3.0,68,0.00,,,0.13,Wunderground v.1.15,2013-04-03 04:32:00,
2013-04-02 23:42:00,38.9,29.2,30.34,ENE,65,4.0,4.0,68,0.00,,,0.13,Wunderground v.1.15,2013-04-03 04:42:00,
2013-04-02 23:52:00,39.1,29.1,30.33,ENE,70,4.0,4.0,67,0.00,,,0.13,Wunderground v.1.15,2013-04-03 04:52:00,